createdAt,value
2023-01-19T00:01:46.397Z,14.03
2023-01-19T00:04:14.951Z,14.63
2023-01-19T00:06:43.398Z,13.77
2023-01-19T00:09:12.123Z,14.43
2023-01-19T00:11:40.457Z,13.27
2023-01-19T00:14:10.290Z,14.13
2023-01-19T00:16:39.155Z,14.27
2023-01-19T00:19:07.453Z,13.97
2023-01-19T00:21:35.715Z,14.03
2023-01-19T00:24:04.709Z,13.27
2023-01-19T00:26:33.015Z,14.57
2023-01-19T00:29:01.364Z,13.30
2023-01-19T00:31:34.107Z,13.43
2023-01-19T00:34:03.172Z,13.77
2023-01-19T00:36:31.674Z,14.37
2023-01-19T00:39:00.407Z,14.20
2023-01-19T00:41:42.803Z,13.67
2023-01-19T00:44:11.661Z,13.03
2023-01-19T00:46:41.640Z,13.97
2023-01-19T00:49:10.901Z,13.63
2023-01-19T00:51:39.607Z,13.73
2023-01-19T00:54:10.509Z,13.40
2023-01-19T00:56:39.243Z,13.87
2023-01-19T00:59:07.838Z,14.13
2023-01-19T01:01:45.225Z,14.10
2023-01-19T01:04:16.158Z,13.10
2023-01-19T01:06:44.645Z,13.77
2023-01-19T01:09:13.191Z,13.73
2023-01-19T01:11:41.906Z,13.30
2023-01-19T01:14:11.090Z,14.03
2023-01-19T01:16:39.841Z,12.70
2023-01-19T01:19:08.646Z,13.73
2023-01-19T01:21:38.787Z,14.40
2023-01-19T01:24:08.251Z,13.77
2023-01-19T01:26:36.575Z,12.93
2023-01-19T01:29:06.312Z,13.80
2023-01-19T01:31:34.803Z,12.83
2023-01-19T01:34:03.222Z,13.07
2023-01-19T01:36:33.516Z,14.20
2023-01-19T01:39:03.695Z,13.07
2023-01-19T01:41:32.378Z,13.80
2023-01-19T01:44:02.065Z,12.77
2023-01-19T01:46:31.820Z,13.57
2023-01-19T01:49:04.832Z,12.37
2023-01-19T01:51:35.254Z,13.47
2023-01-19T01:54:13.945Z,12.83
2023-01-19T01:56:44.785Z,11.97
2023-01-19T01:59:25.861Z,13.77
2023-01-19T02:02:12.587Z,13.20
2023-01-19T02:04:42.040Z,13.20
2023-01-19T02:07:28.495Z,12.83
2023-01-19T02:10:15.396Z,12.57
2023-01-19T02:13:01.533Z,13.33
2023-01-19T02:15:30.221Z,13.60
2023-01-19T02:17:59.304Z,14.43
2023-01-19T02:20:29.491Z,12.97
2023-01-19T02:23:01.794Z,11.93
2023-01-19T02:25:31.790Z,12.63
2023-01-19T02:28:00.516Z,13.90
2023-01-19T02:30:29.222Z,12.97
2023-01-19T02:32:58.147Z,12.97
2023-01-19T02:35:26.841Z,12.53
2023-01-19T02:37:55.905Z,11.93
2023-01-19T02:40:25.393Z,11.77
2023-01-19T02:42:59.167Z,12.60
2023-01-19T02:45:28.908Z,10.50
2023-01-19T02:47:57.392Z,11.53
2023-01-19T02:50:50.711Z,11.33
2023-01-19T02:53:34.621Z,12.70
2023-01-19T02:56:11.226Z,12.07
2023-01-19T02:58:46.431Z,11.27
2023-01-19T03:01:20.575Z,12.23
2023-01-19T03:03:53.510Z,11.57
2023-01-19T03:06:29.260Z,10.83
2023-01-19T03:09:00.721Z,10.80
2023-01-19T03:11:33.147Z,11.17
2023-01-19T03:14:08.931Z,12.23
2023-01-19T03:16:40.972Z,10.40
2023-01-19T03:19:13.421Z,10.23
2023-01-19T03:21:45.588Z,9.77
2023-01-19T03:24:15.499Z,10.67
2023-01-19T03:26:46.573Z,9.97
2023-01-19T03:29:17.554Z,11.20
2023-01-19T03:31:47.774Z,10.53
2023-01-19T03:34:17.991Z,10.97
2023-01-19T03:36:47.828Z,9.20
2023-01-19T03:39:19.071Z,9.33
2023-01-19T03:41:49.599Z,9.17
2023-01-19T03:44:19.415Z,9.67
2023-01-19T03:46:50.371Z,9.30
2023-01-19T03:49:19.046Z,8.70
2023-01-19T03:51:47.691Z,8.93
2023-01-19T03:54:16.026Z,9.03
2023-01-19T03:56:44.889Z,8.93
2023-01-19T03:59:13.196Z,8.90
2023-01-19T04:01:43.198Z,8.97
2023-01-19T04:04:11.602Z,9.13
2023-01-19T04:06:40.083Z,9.63
2023-01-19T04:09:08.730Z,8.33
2023-01-19T04:11:37.555Z,7.47
2023-01-19T04:14:06.104Z,9.10
2023-01-19T04:16:34.862Z,7.90
2023-01-19T04:19:04.821Z,8.70
2023-01-19T04:21:33.361Z,8.23
2023-01-19T04:24:01.896Z,8.30
2023-01-19T04:26:30.475Z,8.87
2023-01-19T04:28:59.515Z,8.33
2023-01-19T04:31:28.050Z,7.63
2023-01-19T04:33:57.501Z,8.70
2023-01-19T04:36:27.651Z,8.57
2023-01-19T04:38:56.223Z,8.80
2023-01-19T04:41:24.819Z,8.60
2023-01-19T04:43:53.230Z,8.77
2023-01-19T04:46:21.792Z,8.70
2023-01-19T04:48:50.274Z,8.33
2023-01-19T04:51:19.072Z,8.00
2023-01-19T04:53:49.353Z,8.50
2023-01-19T04:56:17.741Z,8.10
2023-01-19T04:58:46.188Z,8.47
2023-01-19T05:01:14.553Z,7.67
2023-01-19T05:03:42.894Z,8.67
2023-01-19T05:06:11.378Z,9.30
2023-01-19T05:08:39.882Z,8.30
2023-01-19T05:11:09.787Z,8.57
2023-01-19T05:13:38.354Z,8.60
2023-01-19T05:16:07.850Z,7.97
2023-01-19T05:18:37.104Z,7.87
2023-01-19T05:21:05.894Z,8.03
2023-01-19T05:23:34.122Z,8.50
2023-01-19T05:26:03.617Z,7.70
2023-01-19T05:28:34.238Z,8.53
2023-01-19T05:31:02.613Z,8.20
2023-01-19T05:33:31.444Z,8.47
2023-01-19T05:35:59.700Z,8.50
2023-01-19T05:38:35.477Z,8.57
2023-01-19T05:41:04.532Z,8.10
2023-01-19T05:43:34.269Z,8.73
2023-01-19T05:46:03.971Z,7.80
2023-01-19T05:48:32.395Z,7.43
2023-01-19T05:51:01.522Z,7.53
2023-01-19T05:53:30.324Z,9.30
2023-01-19T05:56:01.736Z,8.87
2023-01-19T05:58:30.080Z,7.93
2023-01-19T06:01:05.490Z,8.73
2023-01-19T06:03:34.232Z,8.00
2023-01-19T06:06:02.918Z,7.30
2023-01-19T06:08:31.510Z,7.50
2023-01-19T06:10:59.790Z,7.43
2023-01-19T06:13:28.154Z,7.60
2023-01-19T06:16:02.320Z,7.60
2023-01-19T06:18:31.187Z,8.97
2023-01-19T06:20:59.629Z,7.90
2023-01-19T06:23:28.625Z,11.17
2023-01-19T06:25:57.057Z,8.03
2023-01-19T06:28:25.397Z,7.37
2023-01-19T06:30:55.669Z,7.40
2023-01-19T06:33:27.894Z,7.37
2023-01-19T06:35:56.711Z,7.20
2023-01-19T06:38:25.522Z,7.60
2023-01-19T06:40:55.282Z,8.10
2023-01-19T06:43:23.863Z,7.90
2023-01-19T06:45:52.806Z,7.90
2023-01-19T06:48:21.496Z,8.50
2023-01-19T06:50:51.483Z,7.47
2023-01-19T06:53:22.214Z,8.57
2023-01-19T06:55:50.552Z,7.87
2023-01-19T06:58:19.113Z,7.33
2023-01-19T07:00:47.435Z,7.63
2023-01-19T07:03:21.549Z,8.97
2023-01-19T07:05:54.389Z,6.63
2023-01-19T07:08:22.790Z,7.87
2023-01-19T07:11:26.262Z,7.17
2023-01-19T07:13:40.115Z,6.57
2023-01-19T07:16:10.479Z,7.20
2023-01-19T07:18:39.243Z,7.40
2023-01-19T07:21:09.408Z,7.60
2023-01-19T07:23:38.550Z,7.83
2023-01-19T07:26:07.274Z,7.13
2023-01-19T07:28:37.037Z,7.03
2023-01-19T07:31:05.884Z,7.20
2023-01-19T07:33:34.485Z,7.47
2023-01-19T07:36:03.032Z,6.97
2023-01-19T07:38:32.845Z,6.90
2023-01-19T07:41:02.094Z,7.20
2023-01-19T07:43:30.918Z,7.40
2023-01-19T07:46:00.128Z,7.37
2023-01-19T07:48:28.559Z,8.37
2023-01-19T07:51:01.090Z,7.63
2023-01-19T07:53:29.421Z,7.73
2023-01-19T07:55:59.647Z,10.77
2023-01-19T07:58:28.143Z,12.10
2023-01-19T08:00:56.604Z,9.57
2023-01-19T08:03:24.884Z,9.57
2023-01-19T08:05:54.225Z,9.47
2023-01-19T08:08:22.595Z,8.30
2023-01-19T08:10:51.871Z,8.07
2023-01-19T08:13:21.664Z,7.50
2023-01-19T08:15:51.568Z,7.70
2023-01-19T08:18:20.397Z,7.77
2023-01-19T08:20:48.791Z,8.47
2023-01-19T08:23:18.181Z,9.23
2023-01-19T08:25:47.069Z,9.07
2023-01-19T08:28:18.060Z,7.73
2023-01-19T08:30:54.153Z,11.00
2023-01-19T08:33:24.110Z,9.07
2023-01-19T08:35:54.048Z,7.87
2023-01-19T08:38:22.857Z,8.90
2023-01-19T08:40:51.285Z,9.63
2023-01-19T08:43:19.836Z,8.37
2023-01-19T08:45:52.433Z,9.13
2023-01-19T08:48:23.370Z,8.53
2023-01-19T08:50:52.792Z,8.23
2023-01-19T08:53:23.628Z,7.70
2023-01-19T08:55:57.357Z,7.93
2023-01-19T08:58:25.992Z,8.03
2023-01-19T09:00:56.415Z,6.77
2023-01-19T09:03:24.779Z,9.17
2023-01-19T09:05:53.262Z,8.37
2023-01-19T09:08:21.677Z,9.10
2023-01-19T09:10:51.362Z,10.73
2023-01-19T09:13:20.536Z,8.10
2023-01-19T09:15:49.099Z,8.10
2023-01-19T09:18:20.629Z,8.77
2023-01-19T09:20:50.259Z,8.23
2023-01-19T09:23:20.672Z,8.17
2023-01-19T09:25:49.132Z,9.33
2023-01-19T09:28:18.849Z,7.00
2023-01-19T09:30:47.453Z,7.40
2023-01-19T09:33:19.170Z,10.47
2023-01-19T09:35:48.960Z,8.70
2023-01-19T09:38:17.776Z,8.87
2023-01-19T09:40:49.512Z,8.03
2023-01-19T09:43:25.304Z,8.40
2023-01-19T09:45:56.975Z,8.40
2023-01-19T09:48:38.799Z,6.87
2023-01-19T09:51:08.868Z,8.57
2023-01-19T09:53:50.537Z,10.27
2023-01-19T09:56:21.180Z,10.27
2023-01-19T09:58:51.030Z,8.60
2023-01-19T10:01:42.155Z,9.33
2023-01-19T10:04:30.667Z,9.40
2023-01-19T10:07:08.372Z,9.73
2023-01-19T10:09:43.685Z,8.90
2023-01-19T10:12:19.115Z,7.53
2023-01-19T10:14:55.187Z,10.13
2023-01-19T10:17:32.192Z,8.50
2023-01-19T10:20:03.744Z,8.43
2023-01-19T10:22:34.523Z,9.03
2023-01-19T10:25:06.602Z,9.93
2023-01-19T10:27:37.619Z,9.83
2023-01-19T10:30:10.259Z,9.73
2023-01-19T10:32:40.662Z,7.40
2023-01-19T10:35:21.986Z,10.90
2023-01-19T10:37:51.454Z,11.83
2023-01-19T10:40:29.084Z,12.17
2023-01-19T10:42:58.946Z,10.23
2023-01-19T10:45:30.193Z,10.63
2023-01-19T10:48:01.778Z,10.30
2023-01-19T10:50:33.101Z,9.70
2023-01-19T10:53:03.814Z,11.63
2023-01-19T10:55:34.378Z,11.33
2023-01-19T10:58:03.148Z,9.73
2023-01-19T11:00:34.461Z,9.63
2023-01-19T11:03:03.425Z,16.17
2023-01-19T11:05:35.319Z,11.00
2023-01-19T11:08:24.072Z,8.70
2023-01-19T11:10:59.687Z,9.17
2023-01-19T11:13:28.067Z,9.43
2023-01-19T11:15:58.580Z,10.63
2023-01-19T11:18:30.248Z,13.87
2023-01-19T11:21:02.336Z,10.87
2023-01-19T11:23:32.649Z,8.70
2023-01-19T11:26:02.941Z,8.37
2023-01-19T11:28:33.326Z,8.70
2023-01-19T11:31:04.112Z,7.50
2023-01-19T11:33:38.351Z,8.23
2023-01-19T11:36:16.635Z,9.50
2023-01-19T11:38:46.321Z,7.70
2023-01-19T11:41:21.487Z,8.17
2023-01-19T11:43:52.949Z,8.17
2023-01-19T11:46:22.388Z,8.13
2023-01-19T11:48:57.440Z,7.40
2023-01-19T11:51:30.621Z,7.20
2023-01-19T11:53:59.062Z,6.90
2023-01-19T11:56:29.779Z,7.33
2023-01-19T11:58:58.473Z,6.83
2023-01-19T12:01:30.451Z,7.03
2023-01-19T12:04:02.486Z,6.83
2023-01-19T12:06:34.847Z,7.47
2023-01-19T12:09:06.522Z,6.57
2023-01-19T12:11:37.381Z,7.87
2023-01-19T12:14:06.253Z,6.70
2023-01-19T12:16:36.280Z,7.67
2023-01-19T12:19:08.155Z,7.90
2023-01-19T12:21:38.195Z,7.07
2023-01-19T12:24:13.758Z,7.67
2023-01-19T12:26:48.134Z,7.37
2023-01-19T12:29:18.731Z,7.00
2023-01-19T12:31:47.564Z,5.93
2023-01-19T12:34:41.638Z,7.27
2023-01-19T12:37:38.573Z,6.63
2023-01-19T12:40:23.151Z,6.30
2023-01-19T12:42:57.757Z,6.60
2023-01-19T12:45:31.579Z,7.23
2023-01-19T12:48:00.072Z,6.00
2023-01-19T12:50:29.732Z,7.73
2023-01-19T12:53:02.241Z,7.33
2023-01-19T12:55:33.356Z,7.13
2023-01-19T12:58:03.800Z,6.63
2023-01-19T13:00:38.090Z,6.37
2023-01-19T13:03:46.544Z,7.27
2023-01-19T13:06:14.942Z,6.13
2023-01-19T13:09:01.631Z,6.03
2023-01-19T13:11:34.227Z,6.70
2023-01-19T13:14:39.147Z,6.00
2023-01-19T13:17:26.579Z,6.33
2023-01-19T13:20:06.027Z,6.40
2023-01-19T13:22:54.575Z,7.07
2023-01-19T13:25:33.781Z,7.03
2023-01-19T13:28:02.386Z,6.80
2023-01-19T13:30:31.426Z,6.37
2023-01-19T13:33:06.874Z,6.37
2023-01-19T13:35:35.332Z,6.57
2023-01-19T13:38:04.342Z,6.30
2023-01-19T13:40:39.046Z,6.30
2023-01-19T13:43:16.514Z,7.40
2023-01-19T13:45:51.176Z,6.67
2023-01-19T13:48:23.383Z,7.33
2023-01-19T13:51:02.281Z,6.70
2023-01-19T13:53:30.708Z,6.83
2023-01-19T13:56:18.347Z,7.03
2023-01-19T13:58:59.148Z,6.70
2023-01-19T14:01:29.322Z,6.50
2023-01-19T14:03:58.510Z,7.07
2023-01-19T14:06:36.305Z,6.80
2023-01-19T14:09:09.605Z,6.63
2023-01-19T14:11:39.623Z,6.77
2023-01-19T14:14:23.763Z,7.70
2023-01-19T14:16:53.493Z,7.57
2023-01-19T14:19:22.467Z,8.07
2023-01-19T14:22:00.755Z,14.70
2023-01-19T14:24:32.203Z,9.60
2023-01-19T14:27:24.315Z,8.53
2023-01-19T14:29:54.741Z,8.40
2023-01-19T14:32:24.441Z,6.83
2023-01-19T14:34:54.036Z,7.13
2023-01-19T14:37:35.949Z,7.30
2023-01-19T14:40:18.774Z,6.97
2023-01-19T14:42:52.428Z,7.93
2023-01-19T14:45:22.716Z,8.30
2023-01-19T14:47:56.615Z,9.27
2023-01-19T14:50:26.921Z,7.70
2023-01-19T14:52:58.048Z,7.13
2023-01-19T14:55:30.533Z,7.37
2023-01-19T14:58:00.655Z,7.07
2023-01-19T15:00:29.609Z,7.93
2023-01-19T15:02:57.996Z,7.47
2023-01-19T15:05:26.538Z,7.50
2023-01-19T15:07:54.896Z,7.90
2023-01-19T15:10:24.896Z,6.70
2023-01-19T15:12:55.229Z,6.90
2023-01-19T15:15:28.515Z,7.43
2023-01-19T15:17:57.016Z,6.80
2023-01-19T15:20:25.682Z,6.67
2023-01-19T15:23:10.416Z,6.33
2023-01-19T15:25:39.670Z,6.20
2023-01-19T15:28:12.212Z,6.87
2023-01-19T15:30:42.046Z,6.30
2023-01-19T15:33:13.889Z,6.70
2023-01-19T15:35:42.389Z,6.37
2023-01-19T15:38:10.840Z,6.73
2023-01-19T15:40:39.322Z,6.13
2023-01-19T15:43:11.602Z,6.37
2023-01-19T15:45:44.476Z,5.97
2023-01-19T15:48:13.401Z,6.53
2023-01-19T15:50:43.587Z,6.87
2023-01-19T15:53:15.365Z,7.03
2023-01-19T15:55:43.870Z,6.70
2023-01-19T15:58:14.078Z,6.30
2023-01-19T16:00:44.174Z,5.93
2023-01-19T16:03:12.789Z,6.53
2023-01-19T16:05:43.256Z,6.90
2023-01-19T16:08:12.746Z,7.77
2023-01-19T16:10:41.761Z,9.07
2023-01-19T16:13:10.676Z,7.33
2023-01-19T16:15:39.780Z,7.10
2023-01-19T16:18:09.714Z,7.10
2023-01-19T16:20:39.407Z,6.70
2023-01-19T16:23:15.122Z,7.80
2023-01-19T16:25:43.824Z,6.77
2023-01-19T16:28:12.276Z,8.37
2023-01-19T16:30:40.776Z,7.37
2023-01-19T16:33:13.850Z,6.63
2023-01-19T16:35:42.336Z,6.37
2023-01-19T16:38:11.185Z,5.90
2023-01-19T16:40:40.043Z,6.40
2023-01-19T16:43:08.781Z,7.57
2023-01-19T16:45:41.254Z,7.40
2023-01-19T16:48:11.134Z,7.47
2023-01-19T16:50:39.690Z,7.57
2023-01-19T16:53:08.035Z,8.17
2023-01-19T16:55:36.442Z,7.77
2023-01-19T16:58:04.918Z,8.70
2023-01-19T17:00:33.736Z,6.83
2023-01-19T17:03:02.332Z,6.70
2023-01-19T17:05:32.120Z,7.47
2023-01-19T17:08:00.464Z,8.73
2023-01-19T17:10:28.895Z,7.93
2023-01-19T17:12:57.200Z,7.17
2023-01-19T17:15:25.766Z,7.07
2023-01-19T17:17:54.464Z,6.90
2023-01-19T17:20:22.857Z,7.00
2023-01-19T17:22:52.810Z,6.83
2023-01-19T17:25:21.234Z,7.13
2023-01-19T17:27:49.671Z,8.00
2023-01-19T17:30:18.910Z,7.70
2023-01-19T17:32:47.351Z,7.40
2023-01-19T17:35:15.957Z,7.53
2023-01-19T17:37:44.356Z,7.00
2023-01-19T17:40:14.887Z,7.50
2023-01-19T17:42:43.380Z,7.80
2023-01-19T17:45:12.103Z,8.53
2023-01-19T17:47:40.527Z,7.77
2023-01-19T17:50:10.038Z,8.60
2023-01-19T17:52:39.206Z,9.60
2023-01-19T17:55:08.628Z,8.40
2023-01-19T17:57:38.555Z,8.73
2023-01-19T18:00:09.028Z,8.23
2023-01-19T18:02:43.603Z,9.40
2023-01-19T18:05:14.236Z,8.07
2023-01-19T18:07:42.630Z,8.77
2023-01-19T18:10:12.402Z,9.37
2023-01-19T18:12:42.411Z,10.23
2023-01-19T18:15:11.643Z,10.53
2023-01-19T18:17:40.180Z,9.83
2023-01-19T18:20:09.827Z,9.57
2023-01-19T18:22:38.291Z,9.43
2023-01-19T18:25:07.320Z,9.83
2023-01-19T18:27:35.671Z,10.23
2023-01-19T18:30:06.404Z,9.43
2023-01-19T18:32:35.918Z,9.43
2023-01-19T18:35:04.519Z,10.90
2023-01-19T18:37:33.195Z,10.47
2023-01-19T18:40:04.724Z,10.83
2023-01-19T18:42:35.135Z,12.80
2023-01-19T18:45:05.193Z,11.10
2023-01-19T18:47:34.797Z,11.20
2023-01-19T18:50:03.182Z,13.40
2023-01-19T18:52:32.925Z,11.77
2023-01-19T18:55:01.283Z,11.67
2023-01-19T18:57:29.724Z,12.73
2023-01-19T18:59:58.010Z,12.77
2023-01-19T19:02:27.767Z,13.30
2023-01-19T19:04:56.237Z,11.90
2023-01-19T19:07:24.833Z,12.80
2023-01-19T19:09:53.414Z,13.53
2023-01-19T19:12:21.952Z,14.17
2023-01-19T19:14:50.231Z,15.53
2023-01-19T19:17:19.329Z,15.13
2023-01-19T19:19:49.355Z,14.07
2023-01-19T19:22:17.798Z,14.27
2023-01-19T19:24:46.127Z,14.23
2023-01-19T19:27:14.710Z,15.50
2023-01-19T19:29:44.096Z,15.23
2023-01-19T19:32:12.480Z,14.40
2023-01-19T19:34:41.055Z,14.93
2023-01-19T19:37:10.777Z,14.77
2023-01-19T19:39:39.439Z,16.07
2023-01-19T19:42:07.947Z,16.37
2023-01-19T19:44:36.409Z,15.60
2023-01-19T19:47:04.811Z,16.07
2023-01-19T19:49:33.102Z,15.90
2023-01-19T19:52:01.536Z,16.50
2023-01-19T19:54:31.397Z,15.90
2023-01-19T19:56:59.877Z,18.80
2023-01-19T19:59:28.157Z,15.87
2023-01-19T20:01:56.568Z,18.50
2023-01-19T20:04:25.450Z,19.20
2023-01-19T20:06:53.966Z,17.33
2023-01-19T20:09:22.461Z,19.40
2023-01-19T20:11:53.017Z,17.43
2023-01-19T20:14:22.515Z,17.23
2023-01-19T20:16:51.144Z,18.57
2023-01-19T20:19:19.657Z,17.00
2023-01-19T20:21:48.037Z,17.97
2023-01-19T20:24:18.735Z,17.30
2023-01-19T20:26:50.406Z,17.97
2023-01-19T20:29:21.051Z,17.70
2023-01-19T20:31:51.485Z,17.87
2023-01-19T20:34:22.805Z,17.63
2023-01-19T20:36:53.476Z,17.13
2023-01-19T20:39:22.813Z,17.47
2023-01-19T20:41:52.601Z,18.00
2023-01-19T20:44:23.847Z,17.53
2023-01-19T20:46:52.696Z,18.37
2023-01-19T20:49:21.208Z,18.27
2023-01-19T20:51:51.871Z,18.77
2023-01-19T20:54:22.184Z,20.20
2023-01-19T20:56:50.834Z,18.10
2023-01-19T20:59:19.311Z,18.47
2023-01-19T21:01:49.717Z,18.23
2023-01-19T21:04:18.435Z,19.77
2023-01-19T21:06:46.870Z,18.97
2023-01-19T21:09:15.424Z,19.33
2023-01-19T21:11:43.931Z,18.40
2023-01-19T21:14:12.329Z,18.80
2023-01-19T21:16:42.580Z,18.87
2023-01-19T21:19:13.286Z,19.70
2023-01-19T21:21:41.693Z,19.27
2023-01-19T21:24:11.804Z,18.17
2023-01-19T21:26:41.884Z,18.67
2023-01-19T21:29:13.446Z,19.73
2023-01-19T21:31:41.986Z,19.43
2023-01-19T21:34:12.290Z,20.17
2023-01-19T21:36:40.789Z,18.43
2023-01-19T21:39:09.230Z,19.70
2023-01-19T21:41:39.832Z,20.17
2023-01-19T21:44:08.471Z,19.90
2023-01-19T21:46:36.864Z,20.37
2023-01-19T21:49:06.632Z,20.83
2023-01-19T21:51:37.496Z,20.13
2023-01-19T21:54:07.198Z,18.93
2023-01-19T21:56:38.057Z,20.47
2023-01-19T21:59:06.756Z,19.77
2023-01-19T22:01:36.136Z,20.53
2023-01-19T22:04:04.693Z,20.43
2023-01-19T22:06:33.003Z,18.80
2023-01-19T22:09:02.808Z,20.83
2023-01-19T22:11:31.505Z,18.97
2023-01-19T22:14:00.907Z,20.07
2023-01-19T22:16:30.144Z,20.23
2023-01-19T22:19:01.082Z,20.00
2023-01-19T22:21:31.366Z,18.53
2023-01-19T22:24:00.870Z,19.93
2023-01-19T22:26:31.987Z,20.07
2023-01-19T22:29:01.843Z,19.97
2023-01-19T22:31:30.884Z,19.17
2023-01-19T22:33:59.606Z,20.97
2023-01-19T22:36:29.732Z,20.30
2023-01-19T22:38:59.528Z,20.67
2023-01-19T22:41:31.074Z,20.20
2023-01-19T22:44:00.895Z,19.67
2023-01-19T22:46:31.828Z,18.57
2023-01-19T22:49:01.744Z,18.50
2023-01-19T22:51:31.250Z,19.73
2023-01-19T22:54:00.129Z,18.33
2023-01-19T22:56:31.587Z,20.30
2023-01-19T22:59:00.715Z,17.27
2023-01-19T23:01:30.564Z,18.83
2023-01-19T23:03:58.987Z,18.57
2023-01-19T23:06:29.289Z,19.17
2023-01-19T23:08:59.674Z,18.37
2023-01-19T23:11:30.989Z,17.40
2023-01-19T23:13:59.743Z,17.57
2023-01-19T23:16:28.239Z,18.67
2023-01-19T23:18:58.010Z,17.43
2023-01-19T23:21:28.550Z,16.60
2023-01-19T23:23:57.745Z,16.83
2023-01-19T23:26:26.601Z,17.27
2023-01-19T23:28:58.227Z,17.10
2023-01-19T23:31:29.237Z,15.53
2023-01-19T23:33:59.103Z,15.83
2023-01-19T23:36:29.841Z,16.23
2023-01-19T23:38:59.564Z,15.40
2023-01-19T23:41:29.004Z,16.77
2023-01-19T23:43:58.649Z,14.93
2023-01-19T23:46:27.496Z,14.90
2023-01-19T23:48:56.025Z,15.00
2023-01-19T23:51:26.230Z,16.17
2023-01-19T23:53:54.766Z,15.57
2023-01-19T23:56:24.843Z,15.93
2023-01-19T23:58:55.469Z,14.20
